Time;durP1;ratioP1;P1;durP2;ratioP2;P2;SDS_P1;SDS_P2;PMS_P1;PMS_P2;Temp;Humidity;BMP_temperature;BMP_pressure;BME280_temperature;BME280_humidity;BME280_pressure;Samples;Min_cycle;Max_cycle;Signal;HPM_P1;HPM_P2
2023/12/26 00:00:42;;;;;;;0.77;0.77;;;;;;;7.82;62.33;95162.75;4404245;32;20284;-64
2023/12/26 00:03:07;;;;;;;0.60;0.60;;;;;;;7.72;62.87;95170.75;4406774;32;20283;-64
2023/12/26 00:05:33;;;;;;;0.57;0.50;;;;;;;7.90;62.50;95162.13;4403766;32;20302;-64
2023/12/26 00:07:58;;;;;;;0.60;0.57;;;;;;;7.98;62.02;95160.75;4378386;32;20330;-64
2023/12/26 00:10:25;;;;;;;0.40;0.40;;;;;;;7.75;62.68;95159.66;4382107;32;20226;-64
2023/12/26 00:12:50;;;;;;;1.23;1.13;;;;;;;7.77;62.97;95154.88;4389840;32;20193;-64
2023/12/26 00:15:19;;;;;;;0.50;0.50;;;;;;;7.72;63.25;95149.66;4379237;32;20310;-64
2023/12/26 00:17:44;;;;;;;0.87;0.87;;;;;;;7.74;63.09;95147.50;4399420;32;20219;-64
2023/12/26 00:20:09;;;;;;;0.47;0.47;;;;;;;7.70;63.55;95141.22;4391019;32;20334;-64
2023/12/26 00:22:36;;;;;;;1.33;0.90;;;;;;;7.85;63.08;95144.50;4401578;32;20188;-64
2023/12/26 00:25:03;;;;;;;0.40;0.33;;;;;;;7.73;63.45;95145.94;4395840;32;20333;-65
2023/12/26 00:27:28;;;;;;;0.50;0.50;;;;;;;7.67;63.69;95147.06;4398365;32;20276;-64
2023/12/26 00:29:55;;;;;;;2.20;0.70;;;;;;;7.56;64.44;95147.16;4384878;32;20354;-64
2023/12/26 00:32:22;;;;;;;0.37;0.37;;;;;;;7.59;64.35;95146.59;4376119;32;20192;-64
2023/12/26 00:34:47;;;;;;;0.30;0.30;;;;;;;7.47;64.61;95140.91;4396004;32;20294;-64
2023/12/26 00:37:13;;;;;;;0.40;0.40;;;;;;;7.57;64.56;95143.44;4395870;32;20277;-64
2023/12/26 00:39:38;;;;;;;0.40;0.40;;;;;;;7.54;64.54;95145.84;4404971;32;20188;-64
2023/12/26 00:42:03;;;;;;;0.20;0.20;;;;;;;7.47;65.19;95137.50;4404795;32;20192;-64
2023/12/26 00:44:31;;;;;;;0.63;0.63;;;;;;;7.29;65.69;95141.59;4387177;32;20349;-64
2023/12/26 00:46:59;;;;;;;0.40;0.40;;;;;;;7.40;65.56;95129.87;4405143;32;20200;-64
2023/12/26 00:49:26;;;;;;;0.40;0.40;;;;;;;7.32;66.02;95135.75;4396487;32;20287;-64
2023/12/26 00:51:52;;;;;;;0.83;0.80;;;;;;;7.22;66.83;95123.44;4377417;32;20328;-64
2023/12/26 00:54:19;;;;;;;1.87;0.60;;;;;;;7.16;67.50;95135.09;4377759;32;20303;-64
2023/12/26 00:56:44;;;;;;;0.23;0.23;;;;;;;7.40;67.37;95137.03;4394463;32;20275;-64
2023/12/26 00:59:09;;;;;;;0.50;0.50;;;;;;;7.16;67.91;95137.72;4393820;32;20357;-64
2023/12/26 01:01:35;;;;;;;0.43;0.43;;;;;;;7.13;68.24;95142.78;4390707;32;20181;-64
2023/12/26 01:04:02;;;;;;;0.63;0.63;;;;;;;7.04;69.11;95141.81;4382689;32;20196;-64
2023/12/26 01:06:27;;;;;;;0.87;0.87;;;;;;;7.08;69.17;95140.16;4354096;32;20270;-64
2023/12/26 01:08:53;;;;;;;0.70;0.70;;;;;;;6.96;69.77;95147.66;4387223;32;20287;-64
2023/12/26 01:11:18;;;;;;;1.57;0.50;;;;;;;6.98;69.83;95140.25;4401496;32;20187;-64
2023/12/26 01:13:43;;;;;;;0.90;0.40;;;;;;;6.93;70.61;95137.66;4374381;32;20189;-64
2023/12/26 01:16:09;;;;;;;0.43;0.43;;;;;;;6.93;70.61;95150.81;4394272;32;20202;-63
2023/12/26 01:18:34;;;;;;;1.17;0.87;;;;;;;6.96;71.05;95152.91;4381493;32;20192;-64
2023/12/26 01:21:03;;;;;;;0.30;0.30;;;;;;;6.90;71.52;95142.41;4381506;32;20271;-64
2023/12/26 01:23:28;;;;;;;0.57;0.57;;;;;;;6.82;72.04;95145.63;4373813;32;20232;-64
2023/12/26 01:25:54;;;;;;;0.20;0.20;;;;;;;6.83;72.25;95146.44;4370024;32;20340;-64
2023/12/26 01:28:21;;;;;;;0.73;0.73;;;;;;;6.74;72.95;95143.56;4394776;32;20220;-64
2023/12/26 01:30:46;;;;;;;0.30;0.30;;;;;;;6.70;73.30;95150.44;4385699;32;20272;-64
2023/12/26 01:33:11;;;;;;;0.33;0.33;;;;;;;6.72;73.21;95144.91;4387970;32;20267;-64
2023/12/26 01:35:38;;;;;;;0.60;0.60;;;;;;;6.83;72.69;95139.31;4401099;32;20200;-64
2023/12/26 01:38:04;;;;;;;0.33;0.33;;;;;;;6.92;72.42;95143.97;4404912;32;20188;-64
2023/12/26 01:40:30;;;;;;;0.60;0.60;;;;;;;6.79;73.06;95145.37;4406042;32;20338;-64
2023/12/26 01:42:56;;;;;;;0.40;0.40;;;;;;;6.76;73.30;95144.09;4398624;32;20294;-64
2023/12/26 01:45:23;;;;;;;1.77;0.57;;;;;;;6.80;73.20;95155.66;4389557;32;20211;-64
2023/12/26 01:47:52;;;;;;;0.63;0.63;;;;;;;6.94;72.47;95144.50;4393063;32;20291;-64
2023/12/26 01:50:21;;;;;;;0.67;0.30;;;;;;;6.94;72.23;95155.03;4394477;32;20287;-64
2023/12/26 01:52:47;;;;;;;0.20;0.20;;;;;;;6.94;72.21;95152.41;4374029;32;20328;-64
2023/12/26 01:55:14;;;;;;;0.53;0.53;;;;;;;6.97;71.88;95154.50;4370012;32;20333;-64
2023/12/26 01:57:40;;;;;;;0.40;0.40;;;;;;;6.94;71.97;95147.91;4392821;32;20272;-64
2023/12/26 02:00:09;;;;;;;0.13;0.13;;;;;;;6.98;72.12;95150.81;4376168;32;20387;-64
2023/12/26 02:02:38;;;;;;;1.10;0.63;;;;;;;6.78;72.80;95147.25;4391727;32;20326;-64
2023/12/26 02:05:06;;;;;;;0.53;0.53;;;;;;;7.02;72.04;95143.91;4364761;32;20280;-64
2023/12/26 02:07:36;;;;;;;3.87;0.87;;;;;;;6.94;72.30;95136.59;4383028;32;20297;-64
2023/12/26 02:10:04;;;;;;;1.57;0.60;;;;;;;6.95;72.34;95141.59;4388517;32;20340;-64
2023/12/26 02:12:31;;;;;;;0.57;0.57;;;;;;;7.15;71.67;95128.25;4374068;32;20409;-64
2023/12/26 02:14:57;;;;;;;0.60;0.60;;;;;;;7.10;71.32;95138.81;4387219;32;20327;-64
2023/12/26 02:17:24;;;;;;;0.67;0.57;;;;;;;6.72;72.53;95132.50;4390054;32;20276;-64
2023/12/26 02:19:50;;;;;;;0.47;0.43;;;;;;;6.92;71.95;95136.84;4391789;32;20335;-64
2023/12/26 02:22:17;;;;;;;0.40;0.40;;;;;;;7.05;71.30;95127.56;4382479;32;20314;-64
2023/12/26 02:24:44;;;;;;;0.87;0.87;;;;;;;6.86;71.77;95133.47;4386233;32;20212;-64
2023/12/26 02:27:18;;;;;;;0.30;0.30;;;;;;;6.95;71.11;95130.25;4393529;32;20326;-63
2023/12/26 02:29:51;;;;;;;0.60;0.60;;;;;;;7.08;70.92;95137.53;4371263;32;20288;-64
2023/12/26 02:32:23;;;;;;;1.43;0.80;;;;;;;6.94;71.24;95128.66;4349447;32;20287;-64
2023/12/26 02:34:54;;;;;;;0.30;0.30;;;;;;;7.05;70.98;95132.81;4354540;32;20293;-64
2023/12/26 02:37:24;;;;;;;0.43;0.43;;;;;;;6.96;71.18;95131.81;4390075;32;20280;-64
2023/12/26 02:39:51;;;;;;;0.40;0.40;;;;;;;6.84;71.88;95126.91;4380186;32;20319;-64
2023/12/26 02:42:18;;;;;;;1.03;0.67;;;;;;;6.94;71.54;95120.75;4396066;32;20279;-64
2023/12/26 02:44:44;;;;;;;0.20;0.20;;;;;;;6.92;71.74;95126.31;4374794;32;20336;-64
2023/12/26 02:47:09;;;;;;;0.20;0.20;;;;;;;6.92;71.98;95117.59;4380994;32;20302;-64
2023/12/26 02:49:35;;;;;;;0.30;0.30;;;;;;;6.96;71.66;95121.28;4393874;32;20199;-64
2023/12/26 02:52:03;;;;;;;0.13;0.13;;;;;;;6.99;71.43;95118.88;4394486;32;20275;-64
2023/12/26 02:54:30;;;;;;;1.33;0.70;;;;;;;6.90;71.58;95116.03;4387091;32;20192;-64
2023/12/26 02:56:56;;;;;;;0.43;0.43;;;;;;;6.80;72.27;95113.47;4376174;32;20442;-64
2023/12/26 02:59:23;;;;;;;0.30;0.30;;;;;;;6.72;72.13;95118.53;4386956;32;20646;-64
2023/12/26 03:01:48;;;;;;;0.23;0.23;;;;;;;6.63;72.78;95115.72;4383557;32;20287;-64
2023/12/26 03:04:14;;;;;;;0.30;0.30;;;;;;;6.59;72.85;95112.03;4406394;32;20306;-64
2023/12/26 03:06:40;;;;;;;0.33;0.33;;;;;;;6.57;72.73;95116.00;4402710;32;20247;-62
2023/12/26 03:09:05;;;;;;;0.73;0.73;;;;;;;6.73;72.33;95112.22;4386246;32;20196;-62
2023/12/26 03:11:30;;;;;;;0.53;0.53;;;;;;;6.83;72.10;95112.94;4409991;32;20196;-61
2023/12/26 03:13:56;;;;;;;0.40;0.40;;;;;;;6.71;72.23;95107.22;4403740;32;20239;-61
2023/12/26 03:16:21;;;;;;;0.40;0.40;;;;;;;6.73;72.13;95105.09;4388102;32;20221;-62
2023/12/26 03:18:48;;;;;;;0.27;0.27;;;;;;;6.64;72.39;95100.69;4404074;32;20279;-61
2023/12/26 03:21:13;;;;;;;0.60;0.47;;;;;;;6.65;72.49;95105.66;4379635;32;20192;-62
2023/12/26 03:23:38;;;;;;;0.63;0.63;;;;;;;6.62;72.90;95106.22;4385579;32;20298;-61
2023/12/26 03:26:07;;;;;;;0.30;0.30;;;;;;;6.54;73.48;95109.44;4372183;32;20219;-61
2023/12/26 03:28:32;;;;;;;0.87;0.87;;;;;;;6.43;73.38;95107.94;4389851;32;20308;-62
2023/12/26 03:30:58;;;;;;;0.30;0.30;;;;;;;6.06;74.50;95109.13;4400946;32;20358;-61
2023/12/26 03:33:24;;;;;;;0.50;0.50;;;;;;;6.21;74.29;95116.19;4393483;32;20201;-61
2023/12/26 03:35:49;;;;;;;0.63;0.63;;;;;;;6.14;74.02;95115.69;4379781;32;20219;-62
2023/12/26 03:38:16;;;;;;;1.33;0.50;;;;;;;5.92;74.82;95123.16;4382132;32;20275;-61
2023/12/26 03:40:42;;;;;;;1.07;0.70;;;;;;;6.19;74.05;95124.38;4362013;32;20197;-61
2023/12/26 03:43:09;;;;;;;0.70;0.70;;;;;;;6.38;72.97;95113.22;4380953;32;20283;-61
2023/12/26 03:45:34;;;;;;;0.37;0.37;;;;;;;6.40;73.02;95114.53;4396013;32;20232;-61
2023/12/26 03:48:00;;;;;;;0.20;0.20;;;;;;;6.44;72.82;95118.16;4381874;32;20313;-61
2023/12/26 03:50:27;;;;;;;0.60;0.53;;;;;;;6.37;72.84;95117.69;4374308;32;20214;-61
2023/12/26 03:52:52;;;;;;;0.60;0.60;;;;;;;6.49;72.54;95118.13;4398519;32;20282;-61
2023/12/26 03:55:17;;;;;;;0.43;0.43;;;;;;;6.48;72.84;95128.94;4376215;32;20195;-62
2023/12/26 03:57:44;;;;;;;0.80;0.80;;;;;;;6.29;73.47;95128.00;4388373;32;20191;-61
2023/12/26 04:00:15;;;;;;;0.30;0.30;;;;;;;6.15;73.74;95127.81;4400297;32;20196;-62
2023/12/26 04:02:41;;;;;;;0.30;0.30;;;;;;;6.03;74.69;95125.47;4390997;32;20298;-62
2023/12/26 04:05:08;;;;;;;0.40;0.40;;;;;;;6.06;74.75;95117.03;4389792;32;20311;-62
2023/12/26 04:07:34;;;;;;;1.20;0.77;;;;;;;6.28;73.89;95121.16;4365522;32;20272;-61
2023/12/26 04:10:01;;;;;;;0.33;0.33;;;;;;;6.43;73.19;95116.63;4368331;32;20371;-61
2023/12/26 04:12:27;;;;;;;0.30;0.30;;;;;;;6.18;73.74;95119.38;4388005;32;20296;-61
2023/12/26 04:14:53;;;;;;;1.80;0.60;;;;;;;6.44;72.87;95122.66;4396108;32;20315;-61
2023/12/26 04:17:19;;;;;;;1.27;0.70;;;;;;;6.38;72.82;95121.91;4370889;32;20184;-62
2023/12/26 04:19:46;;;;;;;0.23;0.23;;;;;;;6.35;72.78;95122.44;4397222;32;20321;-61
2023/12/26 04:22:12;;;;;;;0.40;0.40;;;;;;;6.57;72.12;95116.00;4383045;32;20210;-61
2023/12/26 04:24:41;;;;;;;0.53;0.53;;;;;;;6.61;72.03;95120.47;4372591;32;20277;-62
2023/12/26 04:27:09;;;;;;;0.30;0.30;;;;;;;6.58;72.14;95107.03;4391662;32;20196;-61
2023/12/26 04:29:36;;;;;;;0.30;0.30;;;;;;;6.69;71.54;95113.81;4391091;32;20307;-61
2023/12/26 04:32:02;;;;;;;0.40;0.40;;;;;;;6.53;71.84;95118.38;4373916;32;20334;-62
2023/12/26 04:34:28;;;;;;;0.83;0.50;;;;;;;6.22;73.02;95116.97;4382895;32;20407;-61
2023/12/26 04:36:55;;;;;;;3.03;0.63;;;;;;;6.36;72.66;95117.97;4393942;32;20298;-61
2023/12/26 04:39:21;;;;;;;0.37;0.37;;;;;;;6.11;73.13;95119.66;4369743;32;20250;-62
2023/12/26 04:41:47;;;;;;;0.60;0.60;;;;;;;6.26;72.41;95131.16;4382368;32;20283;-61
2023/12/26 04:44:13;;;;;;;0.30;0.30;;;;;;;6.14;72.75;95127.00;4384756;32;20368;-61
2023/12/26 04:46:40;;;;;;;0.40;0.40;;;;;;;6.16;72.82;95127.53;4401322;32;20292;-61
2023/12/26 04:49:18;;;;;;;0.30;0.30;;;;;;;5.86;73.74;95140.75;4386584;32;20269;-61
2023/12/26 04:51:44;;;;;;;0.53;0.50;;;;;;;6.01;73.52;95145.25;4376732;32;20284;-61
2023/12/26 04:54:09;;;;;;;1.00;0.87;;;;;;;5.82;73.83;95155.50;4381447;32;20283;-63
2023/12/26 04:56:36;;;;;;;0.50;0.50;;;;;;;5.97;73.18;95152.87;4374355;32;20289;-62
2023/12/26 04:59:03;;;;;;;0.50;0.50;;;;;;;5.77;73.72;95166.06;4346265;32;20208;-62
2023/12/26 05:01:30;;;;;;;0.20;0.20;;;;;;;5.73;73.75;95168.44;4369828;32;20307;-61
2023/12/26 05:03:57;;;;;;;0.43;0.43;;;;;;;5.80;73.87;95165.53;4370208;32;20293;-61
2023/12/26 05:06:23;;;;;;;0.43;0.43;;;;;;;5.89;72.84;95171.06;4368672;32;20322;-62
2023/12/26 05:08:50;;;;;;;0.27;0.27;;;;;;;6.06;72.06;95167.06;4398908;32;20276;-61
2023/12/26 05:11:23;;;;;;;0.17;0.17;;;;;;;6.25;70.23;95177.00;4392301;32;20196;-61
2023/12/26 05:13:49;;;;;;;0.17;0.17;;;;;;;6.47;69.16;95166.91;4343969;32;20312;-61
2023/12/26 05:16:16;;;;;;;0.33;0.30;;;;;;;6.62;67.90;95168.69;4394396;32;20280;-62
2023/12/26 05:18:44;;;;;;;0.30;0.30;;;;;;;6.71;66.42;95162.56;4387996;32;20202;-62
2023/12/26 05:21:20;;;;;;;0.37;0.37;;;;;;;6.90;64.65;95166.13;4384900;32;20292;-62
2023/12/26 05:23:47;;;;;;;0.47;0.47;;;;;;;7.01;63.22;95171.34;4403842;32;20329;-61
2023/12/26 05:26:13;;;;;;;0.20;0.20;;;;;;;7.20;60.88;95175.69;4390886;32;20402;-63
2023/12/26 05:28:40;;;;;;;0.50;0.50;;;;;;;7.43;59.26;95170.78;4392565;32;20321;-61
2023/12/26 05:31:07;;;;;;;0.40;0.30;;;;;;;7.54;58.02;95188.88;4398492;32;20299;-61
2023/12/26 05:33:34;;;;;;;1.10;0.87;;;;;;;7.65;57.79;95192.22;4390811;32;20304;-62
2023/12/26 05:36:00;;;;;;;0.30;0.30;;;;;;;7.74;57.29;95187.91;4389587;32;20360;-61
2023/12/26 05:38:28;;;;;;;0.47;0.47;;;;;;;7.64;57.98;95197.78;4384526;32;20306;-61
2023/12/26 05:40:55;;;;;;;0.10;0.10;;;;;;;7.75;58.66;95201.91;4380694;32;20291;-61
2023/12/26 05:43:21;;;;;;;0.47;0.47;;;;;;;7.72;59.17;95213.00;4330836;32;20331;-62
2023/12/26 05:45:48;;;;;;;0.40;0.40;;;;;;;7.68;58.98;95219.94;4398998;32;20320;-62
2023/12/26 05:48:14;;;;;;;0.80;0.60;;;;;;;7.69;59.72;95224.16;4405036;32;20291;-62
2023/12/26 05:50:39;;;;;;;0.30;0.30;;;;;;;7.73;59.86;95227.78;4392404;32;20288;-62
2023/12/26 05:53:05;;;;;;;0.20;0.20;;;;;;;7.66;60.11;95238.69;4399421;32;20180;-62
2023/12/26 05:55:31;;;;;;;0.20;0.20;;;;;;;7.72;60.88;95239.41;4377300;32;20204;-61
2023/12/26 05:57:58;;;;;;;0.40;0.40;;;;;;;7.74;61.44;95245.22;4384484;32;20192;-62
2023/12/26 06:00:24;;;;;;;0.20;0.20;;;;;;;7.64;61.49;95237.37;4392615;32;20284;-61
2023/12/26 06:02:51;;;;;;;0.20;0.20;;;;;;;7.63;62.38;95251.66;4383850;32;20276;-61
2023/12/26 06:05:18;;;;;;;1.93;0.83;;;;;;;7.54;62.31;95254.06;4376187;32;20334;-61
2023/12/26 06:07:44;;;;;;;0.30;0.23;;;;;;;7.41;62.61;95260.78;4383024;32;20291;-61
2023/12/26 06:10:10;;;;;;;0.73;0.40;;;;;;;7.36;62.77;95260.81;4391626;32;20284;-63
2023/12/26 06:12:37;;;;;;;0.50;0.50;;;;;;;7.35;63.83;95256.59;4394855;32;20287;-61
2023/12/26 06:15:05;;;;;;;4.57;0.63;;;;;;;7.30;64.78;95250.53;4394542;32;20280;-62
2023/12/26 06:17:30;;;;;;;0.30;0.30;;;;;;;7.29;64.14;95260.31;4391157;32;20378;-61
2023/12/26 06:19:56;;;;;;;0.30;0.30;;;;;;;7.28;64.25;95266.66;4404582;32;20311;-61
2023/12/26 06:22:23;;;;;;;0.30;0.30;;;;;;;7.30;64.29;95261.09;4381250;32;20191;-62
2023/12/26 06:24:48;;;;;;;1.00;0.77;;;;;;;7.39;64.77;95262.09;4378807;32;20207;-61
2023/12/26 06:27:13;;;;;;;1.57;0.73;;;;;;;7.33;64.84;95263.97;4397110;32;20312;-61
2023/12/26 06:29:40;;;;;;;0.30;0.30;;;;;;;7.34;66.50;95270.84;4389995;32;20217;-61
2023/12/26 06:32:06;;;;;;;0.20;0.20;;;;;;;7.33;65.54;95271.09;4381709;32;20227;-61
2023/12/26 06:34:31;;;;;;;0.50;0.50;;;;;;;7.46;65.51;95273.94;4404653;32;20378;-61
2023/12/26 06:36:56;;;;;;;0.63;0.20;;;;;;;7.35;66.30;95282.19;4396059;32;20218;-61
2023/12/26 06:39:24;;;;;;;0.87;0.60;;;;;;;7.32;66.91;95283.50;4403387;32;20267;-61
2023/12/26 06:41:51;;;;;;;0.30;0.30;;;;;;;7.33;67.35;95290.37;4397679;32;20244;-61
2023/12/26 06:44:18;;;;;;;0.23;0.23;;;;;;;7.36;67.08;95289.03;4399727;32;20284;-62
2023/12/26 06:46:43;;;;;;;0.20;0.20;;;;;;;7.38;67.39;95306.19;4360534;32;20284;-62
2023/12/26 06:49:09;;;;;;;0.83;0.63;;;;;;;7.19;67.96;95299.94;4349712;32;20370;-61
2023/12/26 06:51:40;;;;;;;2.63;0.50;;;;;;;7.21;68.25;95303.91;4399864;32;20187;-61
2023/12/26 06:54:06;;;;;;;0.50;0.50;;;;;;;7.16;68.55;95311.84;4372172;32;20357;-62
2023/12/26 06:56:32;;;;;;;0.43;0.40;;;;;;;7.14;69.59;95302.59;4400128;32;20271;-62
2023/12/26 06:58:59;;;;;;;0.63;0.30;;;;;;;7.19;69.38;95318.41;4391926;32;20226;-61
2023/12/26 07:01:26;;;;;;;0.37;0.37;;;;;;;7.21;68.64;95325.00;4401266;32;20287;-61
2023/12/26 07:03:53;;;;;;;0.47;0.47;;;;;;;7.24;69.39;95327.09;4386858;32;20288;-61
2023/12/26 07:06:20;;;;;;;0.40;0.40;;;;;;;7.30;69.40;95341.03;4395160;32;20290;-61
2023/12/26 07:08:49;;;;;;;0.20;0.20;;;;;;;7.35;68.94;95335.75;4365909;32;20291;-61
2023/12/26 07:11:14;;;;;;;0.30;0.30;;;;;;;7.41;69.14;95342.56;4379281;32;20320;-61
2023/12/26 07:13:40;;;;;;;0.77;0.53;;;;;;;7.31;70.31;95345.25;4380130;32;20295;-62
2023/12/26 07:16:06;;;;;;;0.53;0.53;;;;;;;7.26;69.88;95353.22;4378234;32;20197;-62
2023/12/26 07:18:31;;;;;;;0.20;0.20;;;;;;;7.25;70.38;95356.91;4368558;32;20239;-61
2023/12/26 07:20:57;;;;;;;0.60;0.60;;;;;;;7.24;71.24;95357.97;4380305;32;20318;-62
2023/12/26 07:23:25;;;;;;;0.20;0.20;;;;;;;7.26;71.37;95363.78;4390580;32;20196;-61
2023/12/26 07:25:53;;;;;;;0.20;0.20;;;;;;;7.33;70.75;95368.75;4390768;32;20208;-61
2023/12/26 07:28:18;;;;;;;0.93;0.33;;;;;;;7.22;71.68;95373.28;4384635;32;20317;-61
2023/12/26 07:30:45;;;;;;;0.50;0.50;;;;;;;7.24;71.50;95371.16;4392197;32;20295;-61
2023/12/26 07:33:10;;;;;;;0.13;0.13;;;;;;;7.21;72.36;95376.97;4386097;32;20222;-62
2023/12/26 07:35:38;;;;;;;0.20;0.20;;;;;;;7.22;72.49;95383.84;4379561;32;20290;-61
2023/12/26 07:38:04;;;;;;;0.13;0.13;;;;;;;7.14;72.73;95387.03;4375980;32;20184;-61
2023/12/26 07:40:34;;;;;;;0.20;0.20;;;;;;;7.17;72.79;95383.84;4401475;32;20390;-61
2023/12/26 07:43:00;;;;;;;0.33;0.33;;;;;;;7.15;72.70;95393.88;4391463;32;20340;-62
2023/12/26 07:45:30;;;;;;;0.40;0.40;;;;;;;7.24;72.71;95403.63;4397297;32;20280;-61
2023/12/26 07:47:57;;;;;;;0.20;0.20;;;;;;;7.18;72.83;95403.91;4396660;32;20318;-61
2023/12/26 07:50:22;;;;;;;0.20;0.20;;;;;;;7.30;72.67;95409.62;4390630;32;20308;-62
2023/12/26 07:52:48;;;;;;;0.20;0.20;;;;;;;7.36;72.11;95415.69;4387260;32;20200;-62
2023/12/26 07:55:16;;;;;;;0.30;0.30;;;;;;;7.35;72.51;95414.13;4411183;32;20204;-61
2023/12/26 07:57:42;;;;;;;0.30;0.30;;;;;;;7.36;72.38;95420.97;4384769;32;20337;-61
2023/12/26 08:00:12;;;;;;;1.33;0.40;;;;;;;7.38;72.29;95424.94;4384321;32;20268;-62
2023/12/26 08:02:40;;;;;;;0.33;0.33;;;;;;;7.36;72.97;95429.69;4399715;32;20187;-61
2023/12/26 08:05:05;;;;;;;0.70;0.67;;;;;;;7.39;72.35;95436.28;4398237;32;20300;-61
2023/12/26 08:07:32;;;;;;;0.13;0.13;;;;;;;7.37;73.11;95436.53;4375982;32;20329;-62
2023/12/26 08:09:58;;;;;;;3.60;0.40;;;;;;;7.35;72.80;95446.56;4372039;32;20196;-62
2023/12/26 08:12:24;;;;;;;0.20;0.13;;;;;;;7.48;72.83;95435.44;4380433;32;20288;-61
2023/12/26 08:14:49;;;;;;;0.77;0.20;;;;;;;7.45;72.02;95430.72;4377369;32;20349;-62
2023/12/26 08:17:14;;;;;;;3.93;0.77;;;;;;;7.43;72.40;95430.19;4384612;32;20223;-61
2023/12/26 08:19:40;;;;;;;0.47;0.20;;;;;;;7.47;71.96;95433.88;4406409;32;20243;-61
2023/12/26 08:22:05;;;;;;;1.30;0.47;;;;;;;7.57;71.20;95436.44;4403513;32;20246;-62
2023/12/26 08:24:31;;;;;;;0.40;0.40;;;;;;;7.64;71.34;95438.00;4362676;32;20323;-62
2023/12/26 08:26:58;;;;;;;0.40;0.40;;;;;;;7.58;71.42;95448.59;4401926;32;20215;-62
2023/12/26 08:29:23;;;;;;;2.33;0.43;;;;;;;7.70;70.79;95447.47;4385612;32;20218;-62
2023/12/26 08:31:49;;;;;;;0.30;0.30;;;;;;;7.73;70.82;95452.22;4390603;32;20280;-61
2023/12/26 08:34:15;;;;;;;0.53;0.53;;;;;;;7.79;70.61;95451.13;4372411;32;20180;-61
2023/12/26 08:36:41;;;;;;;0.23;0.23;;;;;;;7.86;70.19;95462.19;4358492;32;20325;-62
2023/12/26 08:39:07;;;;;;;0.30;0.30;;;;;;;7.78;70.43;95465.41;4389532;32;20256;-61
2023/12/26 08:41:34;;;;;;;0.30;0.30;;;;;;;7.83;70.22;95470.66;4405992;32;20189;-62
2023/12/26 08:44:01;;;;;;;0.30;0.30;;;;;;;7.83;70.50;95462.75;4399697;32;20345;-62
2023/12/26 08:46:26;;;;;;;0.53;0.53;;;;;;;7.81;70.98;95470.12;4402867;32;20295;-61
2023/12/26 08:48:51;;;;;;;0.27;0.27;;;;;;;7.88;70.15;95470.66;4378529;32;20326;-61
2023/12/26 08:51:17;;;;;;;3.20;0.50;;;;;;;7.82;70.95;95475.16;4385496;32;20213;-61
2023/12/26 08:53:42;;;;;;;0.20;0.20;;;;;;;7.86;70.65;95470.91;4388966;32;20242;-62
2023/12/26 08:56:09;;;;;;;0.50;0.50;;;;;;;7.96;69.63;95472.69;4404002;32;20263;-61
2023/12/26 08:58:38;;;;;;;0.40;0.40;;;;;;;8.00;69.55;95479.03;4390552;32;20202;-62
2023/12/26 09:01:06;;;;;;;0.10;0.10;;;;;;;8.04;68.72;95485.34;4403317;32;20328;-61
2023/12/26 09:03:31;;;;;;;1.07;0.90;;;;;;;8.15;68.30;95486.84;4397046;32;20283;-62
2023/12/26 09:05:56;;;;;;;0.30;0.30;;;;;;;8.15;68.40;95486.06;4395553;32;20320;-62
2023/12/26 09:08:23;;;;;;;0.67;0.53;;;;;;;8.15;68.51;95480.78;4396516;32;20184;-62
2023/12/26 09:10:50;;;;;;;0.33;0.30;;;;;;;8.23;68.35;95490.78;4373109;32;20302;-62
2023/12/26 09:13:21;;;;;;;1.37;0.60;;;;;;;8.25;68.00;95491.31;4381857;32;20328;-61
2023/12/26 09:15:52;;;;;;;0.43;0.43;;;;;;;8.26;67.98;95493.66;4376429;32;20284;-62
2023/12/26 09:18:17;;;;;;;0.53;0.53;;;;;;;8.38;66.99;95500.50;4389879;32;20284;-62
2023/12/26 09:20:47;;;;;;;0.60;0.43;;;;;;;8.41;67.13;95499.94;4394035;32;20310;-61
2023/12/26 09:23:14;;;;;;;0.17;0.17;;;;;;;8.40;67.60;95507.09;4382454;32;20204;-62
2023/12/26 09:25:42;;;;;;;0.23;0.23;;;;;;;8.41;66.87;95503.37;4390767;32;20295;-62
2023/12/26 09:28:13;;;;;;;0.30;0.30;;;;;;;8.38;67.99;95500.50;4360333;32;20330;-62
2023/12/26 09:30:39;;;;;;;0.50;0.50;;;;;;;8.44;67.20;95499.41;4397745;32;20282;-61
2023/12/26 09:33:05;;;;;;;0.40;0.40;;;;;;;8.45;66.99;95503.63;4380766;32;20314;-61
2023/12/26 09:35:31;;;;;;;0.30;0.30;;;;;;;8.58;66.50;95492.41;4398141;32;20279;-62
2023/12/26 09:37:57;;;;;;;0.33;0.33;;;;;;;8.54;66.30;95488.75;4377850;32;20303;-61
2023/12/26 09:40:23;;;;;;;0.50;0.50;;;;;;;8.49;66.59;95486.94;4399021;32;20184;-61
2023/12/26 09:42:50;;;;;;;10.50;8.00;;;;;;;8.52;66.77;95490.91;4391470;32;20300;-62
2023/12/26 09:45:23;;;;;;;0.50;0.50;;;;;;;8.61;65.69;95478.66;4386590;32;20320;-62
2023/12/26 09:47:50;;;;;;;0.77;0.50;;;;;;;8.60;65.23;95488.44;4390147;32;20288;-62
2023/12/26 09:50:16;;;;;;;0.57;0.50;;;;;;;8.66;65.19;95488.41;4402698;32;20318;-62
2023/12/26 09:52:58;;;;;;;0.93;0.73;;;;;;;8.83;64.46;95499.38;4404660;32;20359;-62
2023/12/26 09:55:27;;;;;;;13.80;7.27;;;;;;;8.81;63.99;95499.62;4383396;32;20247;-61
2023/12/26 09:57:57;;;;;;;0.50;0.37;;;;;;;8.87;64.09;95492.47;4392035;32;20297;-62
2023/12/26 10:00:29;;;;;;;0.40;0.40;;;;;;;8.89;63.98;95506.19;4404705;32;20331;-62
2023/12/26 10:02:56;;;;;;;1.10;0.70;;;;;;;8.99;63.42;95494.72;4383412;32;20302;-62
2023/12/26 10:05:24;;;;;;;0.23;0.23;;;;;;;9.00;62.67;95493.66;4395538;32;20333;-62
2023/12/26 10:07:51;;;;;;;0.27;0.27;;;;;;;9.11;63.14;95503.09;4388364;32;20328;-61
2023/12/26 10:10:22;;;;;;;0.10;0.10;;;;;;;9.21;61.98;95510.94;4399608;32;20283;-62
2023/12/26 10:12:50;;;;;;;0.10;0.10;;;;;;;9.30;61.13;95501.31;4377558;32;20364;-61
2023/12/26 10:15:16;;;;;;;0.13;0.13;;;;;;;9.22;60.65;95504.56;4382160;32;20357;-62
2023/12/26 10:17:45;;;;;;;0.20;0.20;;;;;;;9.25;60.07;95499.50;4393784;32;20328;-62
2023/12/26 10:20:13;;;;;;;0.20;0.20;;;;;;;9.38;60.04;95508.62;4376893;32;20298;-62
2023/12/26 10:22:42;;;;;;;0.20;0.20;;;;;;;9.43;59.07;95495.34;4381945;32;20288;-61
2023/12/26 10:25:13;;;;;;;0.30;0.30;;;;;;;9.44;59.37;95499.56;4377277;32;20271;-62
2023/12/26 10:27:39;;;;;;;0.20;0.20;;;;;;;9.44;58.94;95502.22;4371792;32;20285;-62
2023/12/26 10:30:06;;;;;;;0.37;0.27;;;;;;;9.46;58.92;95500.09;4365685;32;20321;-62
2023/12/26 10:32:35;;;;;;;0.30;0.30;;;;;;;9.49;60.02;95504.81;4358086;32;20180;-62
2023/12/26 10:35:15;;;;;;;0.20;0.20;;;;;;;9.55;58.16;95498.41;4408731;32;20374;-62
2023/12/26 10:37:42;;;;;;;0.73;0.60;;;;;;;9.60;58.02;95500.19;4377919;32;20279;-62
2023/12/26 10:40:09;;;;;;;0.23;0.23;;;;;;;9.55;57.57;95506.34;4377440;32;20366;-62
2023/12/26 10:42:37;;;;;;;0.67;0.50;;;;;;;9.57;57.36;95504.19;4401488;32;20299;-62
2023/12/26 10:45:06;;;;;;;0.07;0.07;;;;;;;9.58;57.90;95503.13;4394539;32;20288;-62
2023/12/26 10:47:34;;;;;;;0.43;0.43;;;;;;;9.55;58.50;95506.34;4392663;32;20343;-62
2023/12/26 10:50:03;;;;;;;0.33;0.33;;;;;;;9.60;58.18;95511.56;4351192;32;20195;-61
2023/12/26 10:52:30;;;;;;;0.37;0.37;;;;;;;9.69;57.73;95516.25;4399433;32;20379;-62
2023/12/26 10:54:58;;;;;;;0.30;0.30;;;;;;;9.62;57.74;95514.72;4374668;32;20228;-62
2023/12/26 10:57:26;;;;;;;0.37;0.37;;;;;;;9.70;58.55;95523.12;4393471;32;20214;-62
2023/12/26 13:51:29;;;;;;;0.60;0.60;;;;;;;9.65;61.14;95566.34;4364369;32;20249;-62
2023/12/26 13:53:56;;;;;;;0.40;0.40;;;;;;;9.58;61.33;95571.19;4388296;32;20168;-61
2023/12/26 13:56:23;;;;;;;0.40;0.40;;;;;;;9.59;61.41;95573.56;4388264;32;20232;-62
2023/12/26 13:58:49;;;;;;;0.60;0.40;;;;;;;9.58;61.45;95587.09;4373617;32;20284;-61
2023/12/26 14:01:22;;;;;;;0.77;0.40;;;;;;;9.67;61.52;95584.62;4370568;32;20211;-62
2023/12/26 14:03:52;;;;;;;0.43;0.43;;;;;;;9.70;61.25;95584.06;4347944;32;20226;-62
2023/12/26 14:06:23;;;;;;;1.00;0.50;;;;;;;9.70;61.34;95576.12;4392244;32;20288;-62
2023/12/26 14:08:50;;;;;;;0.87;0.53;;;;;;;9.70;61.80;95589.38;4357293;32;20358;-62
2023/12/26 14:11:19;;;;;;;0.50;0.50;;;;;;;9.72;62.44;95584.56;4367326;32;20199;-61
2023/12/26 14:13:49;;;;;;;0.27;0.27;;;;;;;9.62;62.55;95593.41;4381124;32;20251;-61
2023/12/26 14:16:22;;;;;;;0.50;0.50;;;;;;;9.75;62.80;95592.75;4397100;32;20197;-62
2023/12/26 14:18:49;;;;;;;0.00;0.00;;;;;;;9.74;63.11;95579.78;4390612;32;20323;-62
2023/12/26 14:21:14;;;;;;;0.40;0.20;;;;;;;9.63;63.80;95590.47;4396588;32;20291;-62
2023/12/26 14:23:43;;;;;;;0.40;0.40;;;;;;;9.72;63.71;95584.56;4397998;32;20266;-62
2023/12/26 14:26:11;;;;;;;2.23;0.60;;;;;;;9.73;64.47;95594.09;4373198;32;20196;-61
2023/12/26 14:28:37;;;;;;;0.10;0.10;;;;;;;9.74;64.50;95571.84;4368453;32;20978;-62
2023/12/26 14:31:04;;;;;;;0.40;0.27;;;;;;;9.64;65.16;95573.50;4387957;32;20290;-61